createdAt,value
2017-05-26T00:02:00.683Z,0
2017-05-26T00:11:58.482Z,0
2017-05-26T00:16:54.567Z,0
2017-05-26T00:21:51.104Z,0
2017-05-26T00:26:49.198Z,0
2017-05-26T00:41:49.415Z,0
2017-05-26T00:46:46.862Z,0
2017-05-26T00:51:50.814Z,0
2017-05-26T01:01:48.942Z,0
2017-05-26T01:06:48.469Z,0
2017-05-26T01:11:45.988Z,0
2017-05-26T01:16:47.809Z,0
2017-05-26T01:41:56.093Z,0
2017-05-26T01:46:53.694Z,0
2017-05-26T01:51:51.064Z,0
2017-05-26T02:01:47.369Z,0
2017-05-26T02:06:43.474Z,0
2017-05-26T02:11:40.650Z,0
2017-05-26T02:16:37.689Z,0
2017-05-26T02:21:34.086Z,0
2017-05-26T02:31:30.956Z,0
2017-05-26T02:36:27.534Z,4
2017-05-26T02:41:23.747Z,4
2017-05-26T02:46:19.471Z,4
2017-05-26T02:51:15.823Z,8
2017-05-26T02:56:11.865Z,12
2017-05-26T03:01:07.634Z,24
2017-05-26T03:06:04.239Z,48
2017-05-26T03:16:03.038Z,124
2017-05-26T03:20:58.180Z,180
2017-05-26T03:25:54.254Z,252
2017-05-26T03:30:50.120Z,344
2017-05-26T03:35:45.881Z,452
2017-05-26T03:45:45.403Z,716
2017-05-26T03:50:40.535Z,864
2017-05-26T03:55:37.484Z,1016
2017-05-26T04:00:33.344Z,1168
2017-05-26T04:05:31.327Z,1308
2017-05-26T04:10:26.889Z,1472
2017-05-26T04:15:24.312Z,1612
2017-05-26T04:20:20.176Z,1780
2017-05-26T04:25:15.682Z,4100
2017-05-26T04:30:12.868Z,5052
2017-05-26T04:35:09.251Z,5796
2017-05-26T04:40:05.651Z,6548
2017-05-26T04:45:01.953Z,7208
2017-05-26T04:49:58.571Z,8148
2017-05-26T04:54:55.353Z,6856
2017-05-26T04:59:53.233Z,10468
2017-05-26T05:04:50.059Z,11816
2017-05-26T05:09:46.755Z,7964
2017-05-26T05:19:49.345Z,5104
2017-05-26T05:29:46.937Z,4360
2017-05-26T05:34:42.772Z,9944
2017-05-26T05:39:38.775Z,16972
2017-05-26T05:49:38.483Z,4976
2017-05-26T05:54:37.112Z,3712
2017-05-26T06:04:36.922Z,3300
2017-05-26T06:09:34.752Z,3348
2017-05-26T06:14:30.945Z,3304
2017-05-26T06:29:38.322Z,3556
2017-05-26T06:34:35.709Z,3460
2017-05-26T06:39:36.890Z,3572
2017-05-26T06:44:34.541Z,3488
2017-05-26T06:54:30.865Z,3544
2017-05-26T07:09:38.514Z,3884
2017-05-26T07:14:41.819Z,3852
2017-05-26T07:19:37.910Z,3808
2017-05-26T07:24:34.902Z,3968
2017-05-26T08:04:53.333Z,54112
2017-05-26T08:09:51.702Z,65088
2017-05-26T08:24:58.987Z,49312
2017-05-26T08:29:55.930Z,60320
2017-05-26T08:34:59.544Z,57888
2017-05-26T08:39:56.608Z,54688
2017-05-26T08:44:55.515Z,56192
2017-05-26T08:49:51.443Z,56416
2017-05-26T08:54:48.104Z,63328
2017-05-26T08:59:47.990Z,59744
2017-05-26T09:04:52.220Z,69408
2017-05-26T09:09:51.845Z,68224
2017-05-26T09:19:48.306Z,68384
2017-05-26T09:24:45.161Z,71552
2017-05-26T09:39:40.903Z,75136
2017-05-26T09:44:39.937Z,75712
2017-05-26T09:54:36.930Z,75104
2017-05-26T09:59:32.830Z,94080
2017-05-26T10:04:29.343Z,81536
2017-05-26T10:09:24.543Z,90144
2017-05-26T10:14:20.461Z,79264
2017-05-26T10:19:20.806Z,72576
2017-05-26T10:24:16.767Z,63424
2017-05-26T10:34:15.850Z,77888
2017-05-26T10:39:13.032Z,61472
2017-05-26T10:44:09.644Z,74880
2017-05-26T10:49:06.214Z,67168
2017-05-26T10:54:02.822Z,87104
2017-05-26T11:04:01.414Z,73216
2017-05-26T11:09:01.265Z,81376
2017-05-26T11:13:57.309Z,77024
2017-05-26T11:23:56.256Z,87008
2017-05-26T11:28:54.337Z,105440
2017-05-26T11:33:50.213Z,140320
2017-05-26T11:38:49.311Z,114368
2017-05-26T11:43:45.324Z,106176
2017-05-26T11:58:44.962Z,96928
2017-05-26T12:03:44.022Z,118272
2017-05-26T12:08:39.722Z,109632
2017-05-26T12:13:36.192Z,86080
2017-05-26T12:18:32.546Z,61184
2017-05-26T12:23:31.284Z,74016
2017-05-26T12:28:27.658Z,89248
2017-05-26T12:33:23.067Z,117312
2017-05-26T12:38:18.017Z,124064
2017-05-26T12:43:13.638Z,115744
2017-05-26T12:48:09.821Z,97472
2017-05-26T12:53:06.093Z,73632
2017-05-26T12:58:02.211Z,61824
2017-05-26T13:02:58.388Z,81888
2017-05-26T13:12:57.074Z,128480
2017-05-26T13:17:52.669Z,103040
2017-05-26T13:22:47.504Z,91616
2017-05-26T13:27:42.924Z,73280
2017-05-26T13:32:38.085Z,65312
2017-05-26T13:37:36.481Z,97216
2017-05-26T13:42:34.591Z,93600
2017-05-26T13:52:32.524Z,70848
2017-05-26T13:57:27.997Z,70112
2017-05-26T14:02:25.321Z,37600
2017-05-26T14:07:22.301Z,3388
2017-05-26T14:12:20.681Z,3012
2017-05-26T14:17:15.213Z,2892
2017-05-26T14:22:11.620Z,2852
2017-05-26T14:27:06.545Z,2800
2017-05-26T14:32:02.094Z,2656
2017-05-26T14:36:57.618Z,2588
2017-05-26T14:41:53.555Z,2588
2017-05-26T14:46:48.999Z,2604
2017-05-26T14:51:45.392Z,2432
2017-05-26T14:56:41.463Z,2384
2017-05-26T15:01:36.876Z,2300
2017-05-26T15:06:33.476Z,2304
2017-05-26T15:11:29.738Z,2292
2017-05-26T15:16:25.501Z,2256
2017-05-26T15:21:21.430Z,2200
2017-05-26T15:26:18.597Z,2144
2017-05-26T15:31:14.106Z,2116
2017-05-26T15:36:11.306Z,2092
2017-05-26T15:41:06.799Z,2064
2017-05-26T15:46:04.247Z,2024
2017-05-26T15:50:59.580Z,2008
2017-05-26T15:55:55.823Z,1972
2017-05-26T16:00:51.832Z,1952
2017-05-26T16:05:47.882Z,1956
2017-05-26T16:10:44.535Z,1916
2017-05-26T16:15:42.808Z,1884
2017-05-26T16:20:38.299Z,1864
2017-05-26T16:25:34.625Z,1844
2017-05-26T16:30:31.392Z,1816
2017-05-26T16:35:27.496Z,1804
2017-05-26T16:40:24.167Z,1796
2017-05-26T16:45:20.194Z,1776
2017-05-26T16:50:16.904Z,1740
2017-05-26T16:55:12.838Z,1704
2017-05-26T17:00:08.857Z,1688
2017-05-26T17:05:05.243Z,1656
2017-05-26T17:10:02.024Z,1636
2017-05-26T17:15:07.994Z,1608
2017-05-26T17:30:12.309Z,1524
2017-05-26T17:35:07.923Z,1496
2017-05-26T17:40:05.548Z,1468
2017-05-26T17:45:04.615Z,1432
2017-05-26T17:50:00.343Z,1400
2017-05-26T17:54:56.196Z,1368
2017-05-26T17:59:52.858Z,1340
2017-05-26T18:04:49.319Z,1304
2017-05-26T18:14:45.092Z,1216
2017-05-26T18:19:40.886Z,1168
2017-05-26T18:24:36.885Z,1112
2017-05-26T18:29:32.770Z,1056
2017-05-26T18:34:29.374Z,996
2017-05-26T18:39:26.999Z,936
2017-05-26T18:44:22.232Z,860
2017-05-26T18:54:20.775Z,712
2017-05-26T18:59:18.079Z,632
2017-05-26T19:04:14.865Z,556
2017-05-26T19:09:10.168Z,476
2017-05-26T19:14:05.892Z,392
2017-05-26T19:29:02.689Z,176
2017-05-26T19:44:00.974Z,48
2017-05-26T19:48:58.318Z,32
2017-05-26T19:53:54.126Z,16
2017-05-26T19:58:50.560Z,8
2017-05-26T20:03:46.175Z,4
2017-05-26T20:08:44.166Z,4
2017-05-26T20:18:39.449Z,0
2017-05-26T20:23:37.568Z,0
2017-05-26T20:28:35.832Z,0
2017-05-26T20:33:35.925Z,0
2017-05-26T20:38:33.987Z,0
2017-05-26T20:43:29.847Z,0
2017-05-26T20:58:33.859Z,0
2017-05-26T21:03:32.456Z,0
2017-05-26T21:08:30.138Z,0
2017-05-26T21:13:29.265Z,0
2017-05-26T21:18:27.389Z,0
2017-05-26T21:33:26.324Z,0
2017-05-26T21:38:22.210Z,0
2017-05-26T21:43:19.314Z,0
2017-05-26T21:48:18.833Z,0
2017-05-26T21:53:13.507Z,0
2017-05-26T21:58:12.858Z,0
2017-05-26T22:03:08.079Z,0
2017-05-26T22:08:07.807Z,0
2017-05-26T22:18:03.952Z,0
2017-05-26T22:23:03.963Z,0
2017-05-26T22:28:00.125Z,0
2017-05-26T22:32:56.715Z,0
2017-05-26T22:37:53.973Z,0
2017-05-26T22:47:53.634Z,0
2017-05-26T22:57:50.649Z,0
2017-05-26T23:02:47.120Z,0
2017-05-26T23:07:44.059Z,0
2017-05-26T23:12:40.079Z,0
2017-05-26T23:27:41.480Z,0
2017-05-26T23:37:42.600Z,0
2017-05-26T23:42:39.670Z,0
2017-05-26T23:47:35.709Z,0
2017-05-26T23:52:31.952Z,0
2017-05-26T23:57:28.836Z,0
